createdAt,value
2023-02-17T00:00:16.948Z,7.68
2023-02-17T00:02:43.409Z,8.00
2023-02-17T00:05:09.893Z,6.78
2023-02-17T00:07:36.377Z,7.53
2023-02-17T00:10:03.018Z,6.75
2023-02-17T00:12:29.672Z,6.38
2023-02-17T00:14:56.109Z,6.68
2023-02-17T00:17:22.493Z,5.90
2023-02-17T00:19:48.982Z,7.50
2023-02-17T00:22:15.364Z,6.72
2023-02-17T00:24:41.909Z,6.75
2023-02-17T00:27:08.471Z,7.35
2023-02-17T00:29:34.948Z,7.90
2023-02-17T00:32:01.543Z,8.57
2023-02-17T00:34:28.151Z,8.07
2023-02-17T00:36:54.721Z,6.93
2023-02-17T00:39:21.132Z,7.43
2023-02-17T00:41:48.848Z,7.20
2023-02-17T00:44:20.488Z,8.32
2023-02-17T00:46:47.900Z,7.93
2023-02-17T00:49:17.421Z,7.55
2023-02-17T00:51:45.031Z,8.93
2023-02-17T00:54:11.608Z,6.80
2023-02-17T00:56:38.482Z,7.60
2023-02-17T00:59:04.973Z,8.48
2023-02-17T01:01:32.424Z,7.60
2023-02-17T01:03:59.328Z,8.50
2023-02-17T01:06:29.431Z,8.15
2023-02-17T01:08:56.294Z,6.50
2023-02-17T01:11:27.300Z,8.73
2023-02-17T01:13:55.114Z,6.18
2023-02-17T01:16:30.516Z,8.20
2023-02-17T01:18:58.798Z,7.25
2023-02-17T01:21:27.971Z,7.47
2023-02-17T01:23:57.930Z,8.93
2023-02-17T01:26:26.433Z,8.25
2023-02-17T01:28:54.327Z,8.25
2023-02-17T01:31:22.163Z,7.82
2023-02-17T01:33:48.821Z,8.48
2023-02-17T01:36:17.812Z,9.65
2023-02-17T01:38:46.253Z,6.65
2023-02-17T01:41:13.853Z,7.35
2023-02-17T01:43:40.362Z,7.68
2023-02-17T01:46:08.048Z,5.70
2023-02-17T01:48:44.581Z,6.45
2023-02-17T01:51:17.062Z,8.43
2023-02-17T01:53:49.320Z,7.15
2023-02-17T01:56:17.270Z,7.18
2023-02-17T01:58:50.081Z,6.32
2023-02-17T02:01:17.287Z,4.72
2023-02-17T02:03:44.390Z,8.98
2023-02-17T02:06:20.613Z,6.82
2023-02-17T02:09:00.989Z,7.05
2023-02-17T02:11:28.669Z,6.88
2023-02-17T02:13:55.250Z,6.70
2023-02-17T02:16:42.494Z,4.78
2023-02-17T02:19:27.004Z,5.97
2023-02-17T02:22:02.571Z,6.22
2023-02-17T02:24:46.138Z,5.57
2023-02-17T02:30:09.660Z,7.22
2023-02-17T02:32:48.543Z,7.15
2023-02-17T02:35:25.497Z,5.55
2023-02-17T02:38:23.973Z,5.07
2023-02-17T02:41:02.585Z,4.80
2023-02-17T02:43:30.338Z,6.60
2023-02-17T02:45:57.987Z,5.53
2023-02-17T02:48:25.291Z,5.43
2023-02-17T02:51:17.941Z,5.85
2023-02-17T02:53:57.782Z,4.18
2023-02-17T02:56:36.624Z,5.10
2023-02-17T02:59:32.432Z,5.57
2023-02-17T03:02:16.786Z,5.43
2023-02-17T03:05:00.170Z,4.53
2023-02-17T03:07:33.687Z,5.38
2023-02-17T03:10:00.766Z,5.38
2023-02-17T03:12:29.291Z,5.18
2023-02-17T03:15:02.349Z,5.97
2023-02-17T03:17:33.241Z,5.90
2023-02-17T03:20:04.496Z,4.22
2023-02-17T03:22:36.685Z,6.32
2023-02-17T03:25:03.904Z,5.43
2023-02-17T03:27:30.592Z,4.95
2023-02-17T03:29:57.225Z,5.60
2023-02-17T03:32:23.867Z,5.45
2023-02-17T03:34:50.413Z,7.18
2023-02-17T03:37:17.198Z,7.85
2023-02-17T03:39:43.646Z,6.22
2023-02-17T03:42:10.698Z,6.05
2023-02-17T03:44:37.212Z,6.97
2023-02-17T03:47:03.975Z,7.20
2023-02-17T03:49:30.437Z,7.45
2023-02-17T03:51:58.190Z,6.00
2023-02-17T03:54:25.143Z,4.75
2023-02-17T03:56:51.595Z,6.35
2023-02-17T03:59:18.170Z,6.32
2023-02-17T04:01:44.682Z,6.47
2023-02-17T04:04:11.125Z,7.90
2023-02-17T04:06:37.586Z,6.80
2023-02-17T04:09:04.250Z,6.70
2023-02-17T04:11:30.702Z,8.00
2023-02-17T04:13:57.136Z,10.15
2023-02-17T04:16:23.609Z,7.45
2023-02-17T04:18:50.061Z,8.35
2023-02-17T04:21:16.494Z,7.55
2023-02-17T04:23:42.990Z,8.32
2023-02-17T04:26:09.419Z,7.70
2023-02-17T04:28:40.514Z,7.53
2023-02-17T04:31:07.601Z,6.85
2023-02-17T04:33:34.647Z,7.18
2023-02-17T04:36:01.508Z,6.65
2023-02-17T04:38:32.181Z,7.97
2023-02-17T04:41:00.503Z,7.82
2023-02-17T04:43:28.293Z,7.13
2023-02-17T04:45:55.348Z,6.25
2023-02-17T04:48:22.058Z,6.50
2023-02-17T04:50:48.511Z,6.18
2023-02-17T04:53:15.163Z,6.40
2023-02-17T04:55:42.200Z,6.30
2023-02-17T04:58:09.050Z,5.47
2023-02-17T05:00:36.157Z,6.72
2023-02-17T05:03:03.241Z,6.95
2023-02-17T05:05:29.939Z,7.80
2023-02-17T05:07:56.479Z,5.72
2023-02-17T05:10:24.065Z,8.77
2023-02-17T05:12:50.554Z,4.82
2023-02-17T05:15:16.989Z,6.85
2023-02-17T05:17:43.575Z,6.05
2023-02-17T05:20:10.430Z,7.07
2023-02-17T05:22:37.375Z,6.47
2023-02-17T05:25:04.324Z,6.90
2023-02-17T05:27:32.125Z,5.63
2023-02-17T05:29:58.555Z,7.28
2023-02-17T05:32:25.170Z,6.75
2023-02-17T05:34:51.636Z,6.13
2023-02-17T05:37:18.508Z,7.38
2023-02-17T05:39:45.005Z,6.20
2023-02-17T05:42:11.417Z,8.52
2023-02-17T05:44:37.836Z,6.70
2023-02-17T05:47:04.405Z,7.32
2023-02-17T05:49:30.788Z,7.60
2023-02-17T05:51:57.170Z,8.20
2023-02-17T05:54:23.556Z,6.85
2023-02-17T05:56:49.948Z,7.35
2023-02-17T05:59:16.400Z,6.18
2023-02-17T06:01:42.838Z,6.15
2023-02-17T06:04:09.242Z,6.25
2023-02-17T06:06:35.706Z,8.13
2023-02-17T06:09:02.264Z,8.20
2023-02-17T06:11:28.769Z,7.32
2023-02-17T06:13:55.148Z,6.25
2023-02-17T06:16:21.644Z,7.70
2023-02-17T06:18:48.097Z,8.25
2023-02-17T06:21:14.624Z,6.28
2023-02-17T06:23:41.121Z,6.88
2023-02-17T06:26:07.941Z,5.38
2023-02-17T06:28:35.238Z,6.53
2023-02-17T06:31:01.747Z,5.82
2023-02-17T06:33:28.688Z,5.55
2023-02-17T06:35:55.183Z,7.35
2023-02-17T06:38:21.621Z,8.43
2023-02-17T06:40:48.192Z,5.55
2023-02-17T06:43:14.600Z,5.00
2023-02-17T06:45:41.156Z,6.05
2023-02-17T06:48:07.669Z,5.93
2023-02-17T06:50:34.198Z,6.78
2023-02-17T06:53:00.696Z,6.38
2023-02-17T06:55:27.153Z,6.85
2023-02-17T06:57:53.592Z,4.70
2023-02-17T07:00:21.121Z,6.10
2023-02-17T07:02:47.682Z,6.25
2023-02-17T07:05:14.156Z,5.68
2023-02-17T07:07:40.589Z,6.00
2023-02-17T07:10:07.645Z,4.95
2023-02-17T07:12:34.070Z,5.32
2023-02-17T07:15:00.475Z,4.43
2023-02-17T07:17:26.937Z,5.35
2023-02-17T07:19:53.357Z,3.63
2023-02-17T07:22:19.898Z,4.70
2023-02-17T07:24:46.282Z,4.30
2023-02-17T07:27:12.661Z,3.85
2023-02-17T07:29:39.101Z,3.78
2023-02-17T07:32:05.531Z,3.70
2023-02-17T07:34:31.985Z,4.53
2023-02-17T07:36:58.452Z,5.65
2023-02-17T07:39:24.978Z,4.50
2023-02-17T07:41:51.390Z,5.00
2023-02-17T07:44:18.316Z,3.90
2023-02-17T07:46:44.841Z,4.68
2023-02-17T07:49:11.346Z,3.75
2023-02-17T07:51:37.733Z,4.55
2023-02-17T07:54:04.277Z,5.47
2023-02-17T07:56:30.873Z,3.25
2023-02-17T07:58:57.352Z,2.85
2023-02-17T08:01:25.778Z,3.88
2023-02-17T08:03:53.568Z,3.85
2023-02-17T08:06:25.304Z,5.32
2023-02-17T08:09:12.355Z,3.92
2023-02-17T08:11:59.519Z,2.97
2023-02-17T08:14:27.739Z,4.05
2023-02-17T08:16:54.646Z,4.45
2023-02-17T08:19:21.578Z,5.53
2023-02-17T08:21:48.377Z,3.38
2023-02-17T08:24:16.330Z,5.78
2023-02-17T08:26:42.848Z,6.07
2023-02-17T08:29:09.269Z,3.92
2023-02-17T08:31:36.571Z,3.53
2023-02-17T08:34:06.848Z,4.30
2023-02-17T08:36:33.720Z,3.80
2023-02-17T08:39:00.248Z,4.90
2023-02-17T08:41:30.630Z,4.95
2023-02-17T08:43:59.326Z,4.32
2023-02-17T08:46:27.321Z,4.25
2023-02-17T08:48:53.852Z,3.95
2023-02-17T08:51:23.658Z,4.38
2023-02-17T08:53:52.262Z,4.75
2023-02-17T08:56:18.798Z,4.45
2023-02-17T08:58:45.196Z,5.78
2023-02-17T09:01:12.187Z,4.35
2023-02-17T09:03:39.805Z,5.18
2023-02-17T09:06:07.577Z,3.75
2023-02-17T09:08:34.664Z,2.78
2023-02-17T09:11:01.150Z,4.55
2023-02-17T09:13:28.022Z,4.50
2023-02-17T09:15:54.624Z,3.40
2023-02-17T09:18:22.152Z,4.65
2023-02-17T09:20:49.108Z,4.15
2023-02-17T09:23:16.573Z,4.47
2023-02-17T09:25:43.885Z,3.42
2023-02-17T09:28:11.308Z,2.85
2023-02-17T09:30:37.787Z,3.53
2023-02-17T09:33:05.426Z,4.03
2023-02-17T09:35:32.953Z,2.95
2023-02-17T09:37:59.685Z,3.25
2023-02-17T09:40:48.776Z,2.25
2023-02-17T09:43:18.556Z,4.30
2023-02-17T09:45:53.096Z,3.47
2023-02-17T09:48:24.430Z,2.47
2023-02-17T09:50:58.348Z,2.15
2023-02-17T09:53:50.507Z,2.80
2023-02-17T09:56:24.847Z,2.72
2023-02-17T09:58:55.504Z,3.63
2023-02-17T10:01:28.546Z,3.22
2023-02-17T10:04:28.316Z,4.78
2023-02-17T10:07:02.541Z,2.50
2023-02-17T10:09:34.437Z,3.70
2023-02-17T10:12:03.107Z,3.13
2023-02-17T10:14:36.561Z,2.33
2023-02-17T10:17:22.146Z,2.47
2023-02-17T10:20:06.868Z,1.67
2023-02-17T10:22:34.116Z,1.77
2023-02-17T10:25:02.297Z,2.03
2023-02-17T10:27:33.429Z,1.58
2023-02-17T10:30:22.219Z,2.08
2023-02-17T10:32:59.466Z,2.05
2023-02-17T10:35:40.880Z,1.85
2023-02-17T10:38:33.424Z,2.45
2023-02-17T10:41:03.493Z,2.67
2023-02-17T10:43:32.658Z,2.05
2023-02-17T10:46:07.386Z,2.80
2023-02-17T10:48:45.081Z,2.53
2023-02-17T10:51:18.271Z,2.35
2023-02-17T10:53:49.222Z,2.72
2023-02-17T10:56:25.889Z,3.00
2023-02-17T10:58:59.876Z,3.40
2023-02-17T11:01:28.664Z,3.28
2023-02-17T11:04:13.004Z,2.67
2023-02-17T11:06:48.916Z,3.42
2023-02-17T11:09:23.275Z,2.00
2023-02-17T11:11:58.978Z,2.33
2023-02-17T11:14:32.263Z,3.15
2023-02-17T11:17:04.249Z,1.98
2023-02-17T11:19:34.444Z,2.10
2023-02-17T11:22:04.330Z,2.00
2023-02-17T11:24:35.253Z,2.97
2023-02-17T11:27:03.519Z,4.15
2023-02-17T11:29:30.622Z,2.20
2023-02-17T11:31:58.722Z,2.95
2023-02-17T11:34:29.517Z,3.20
2023-02-17T11:37:00.933Z,3.10
2023-02-17T11:39:28.131Z,3.08
2023-02-17T11:41:54.623Z,2.00
2023-02-17T11:44:26.226Z,4.10
2023-02-17T11:47:07.062Z,3.50
2023-02-17T11:49:59.628Z,3.08
2023-02-17T11:52:43.129Z,3.67
2023-02-17T11:55:27.082Z,2.58
2023-02-17T11:57:59.593Z,2.22
2023-02-17T12:00:37.964Z,4.28
2023-02-17T12:03:23.030Z,2.38
2023-02-17T12:06:08.616Z,2.85
2023-02-17T12:09:04.883Z,2.63
2023-02-17T12:11:46.752Z,2.35
2023-02-17T12:14:52.109Z,3.38
2023-02-17T12:17:37.984Z,3.58
2023-02-17T12:20:41.548Z,3.38
2023-02-17T12:23:42.414Z,2.50
2023-02-17T12:26:29.794Z,3.55
2023-02-17T12:29:12.293Z,2.30
2023-02-17T12:32:03.287Z,4.63
2023-02-17T12:34:43.813Z,3.67
2023-02-17T12:37:23.906Z,4.65
2023-02-17T12:39:56.681Z,3.08
2023-02-17T12:42:28.287Z,4.00
2023-02-17T12:44:59.799Z,3.95
2023-02-17T12:47:46.553Z,3.95
2023-02-17T12:50:27.089Z,4.43
2023-02-17T12:52:57.306Z,4.90
2023-02-17T12:56:00.142Z,3.63
2023-02-17T12:58:29.293Z,3.78
2023-02-17T13:01:13.885Z,4.07
2023-02-17T13:03:40.399Z,3.85
2023-02-17T13:06:31.816Z,5.10
2023-02-17T13:09:21.561Z,4.65
2023-02-17T13:11:48.194Z,3.67
2023-02-17T13:14:38.318Z,2.85
2023-02-17T13:17:04.765Z,4.55
2023-02-17T13:19:33.920Z,4.30
2023-02-17T13:22:02.240Z,2.85
2023-02-17T13:24:35.440Z,4.10
2023-02-17T13:27:22.652Z,3.47
2023-02-17T13:30:02.501Z,2.95
2023-02-17T13:32:31.639Z,3.60
2023-02-17T13:35:30.513Z,3.22
2023-02-17T13:37:56.984Z,2.58
2023-02-17T13:40:24.172Z,1.17
2023-02-17T13:42:55.712Z,3.53
2023-02-17T13:45:26.991Z,3.72
2023-02-17T13:48:12.417Z,1.88
2023-02-17T13:50:51.279Z,2.45
2023-02-17T13:53:35.509Z,3.25
2023-02-17T13:56:06.928Z,3.00
2023-02-17T13:58:36.443Z,3.15
2023-02-17T14:01:05.624Z,2.15
2023-02-17T14:03:40.889Z,2.38
2023-02-17T14:06:12.232Z,2.63
2023-02-17T14:08:43.034Z,3.17
2023-02-17T14:11:21.482Z,2.22
2023-02-17T14:13:51.073Z,2.38
2023-02-17T14:16:40.334Z,1.80
2023-02-17T14:19:09.465Z,2.88
2023-02-17T14:21:38.483Z,3.08
2023-02-17T14:24:05.451Z,2.80
2023-02-17T14:26:36.998Z,2.72
2023-02-17T14:29:06.879Z,1.45
2023-02-17T14:31:48.205Z,2.28
2023-02-17T14:34:27.920Z,2.85
2023-02-17T14:36:55.046Z,3.47
2023-02-17T14:39:21.853Z,2.05
2023-02-17T14:41:48.265Z,3.08
2023-02-17T14:44:14.705Z,2.33
2023-02-17T14:46:41.249Z,1.30
2023-02-17T14:49:07.729Z,2.22
2023-02-17T14:51:36.666Z,1.38
2023-02-17T14:54:12.447Z,1.80
2023-02-17T14:56:43.535Z,2.10
2023-02-17T14:59:10.647Z,1.55
2023-02-17T15:01:37.061Z,2.50
2023-02-17T15:04:03.661Z,1.55
2023-02-17T15:06:40.791Z,1.50
2023-02-17T15:09:16.338Z,3.25
2023-02-17T15:11:45.692Z,1.35
2023-02-17T15:14:17.764Z,1.75
2023-02-17T15:16:45.118Z,2.53
2023-02-17T15:19:12.544Z,1.77
2023-02-17T15:21:43.032Z,1.42
2023-02-17T15:24:26.474Z,3.17
2023-02-17T15:26:55.324Z,3.58
2023-02-17T15:29:24.043Z,2.38
2023-02-17T15:31:53.098Z,3.25
2023-02-17T15:34:22.386Z,2.33
2023-02-17T15:36:49.046Z,2.67
2023-02-17T15:39:18.618Z,1.88
2023-02-17T15:41:47.231Z,2.72
2023-02-17T15:44:26.059Z,2.05
2023-02-17T15:46:54.828Z,2.60
2023-02-17T15:49:22.259Z,2.17
2023-02-17T15:51:48.764Z,1.20
2023-02-17T15:54:19.001Z,0.88
2023-02-17T15:59:21.674Z,0.95
2023-02-17T16:01:48.095Z,2.03
2023-02-17T16:04:15.002Z,3.42
2023-02-17T16:06:41.762Z,1.35
2023-02-17T16:09:09.504Z,1.92
2023-02-17T16:11:41.173Z,1.40
2023-02-17T16:14:16.214Z,1.17
2023-02-17T16:16:43.255Z,2.13
2023-02-17T16:19:11.782Z,2.88
2023-02-17T16:21:38.159Z,1.40
2023-02-17T16:24:05.141Z,1.50
2023-02-17T16:26:36.707Z,1.17
2023-02-17T16:29:12.876Z,1.42
2023-02-17T16:31:39.433Z,2.17
2023-02-17T16:34:05.986Z,1.92
2023-02-17T16:36:35.378Z,2.83
2023-02-17T16:39:10.423Z,3.28
2023-02-17T16:41:36.949Z,2.80
2023-02-17T16:44:03.336Z,2.75
2023-02-17T16:46:35.677Z,4.22
2023-02-17T16:49:04.417Z,3.28
2023-02-17T16:51:30.867Z,2.80
2023-02-17T16:53:57.299Z,3.67
2023-02-17T16:56:39.594Z,3.08
2023-02-17T16:59:05.976Z,3.30
2023-02-17T17:01:32.357Z,3.53
2023-02-17T17:03:58.760Z,3.00
2023-02-17T17:06:28.712Z,3.40
2023-02-17T17:08:55.289Z,3.35
2023-02-17T17:11:24.763Z,4.72
2023-02-17T17:13:51.883Z,3.08
2023-02-17T17:16:24.890Z,7.18
2023-02-17T17:18:51.496Z,3.85
2023-02-17T17:21:19.176Z,3.85
2023-02-17T17:23:46.656Z,4.32
2023-02-17T17:26:18.774Z,3.90
2023-02-17T17:28:48.042Z,3.45
2023-02-17T17:31:15.101Z,4.50
2023-02-17T17:33:41.754Z,3.20
2023-02-17T17:36:21.751Z,4.90
2023-02-17T17:38:48.161Z,6.78
2023-02-17T17:41:15.152Z,5.35
2023-02-17T17:43:41.949Z,4.45
2023-02-17T17:46:17.763Z,5.63
2023-02-17T17:48:44.250Z,5.35
2023-02-17T17:51:14.432Z,4.05
2023-02-17T17:53:41.903Z,3.72
2023-02-17T17:56:14.693Z,3.90
2023-02-17T17:58:41.127Z,4.18
2023-02-17T18:01:07.630Z,4.70
2023-02-17T18:03:34.134Z,4.53
2023-02-17T18:06:01.167Z,5.78
2023-02-17T18:08:28.367Z,3.55
2023-02-17T18:10:55.181Z,2.85
2023-02-17T18:13:21.904Z,4.70
2023-02-17T18:15:48.452Z,4.03
2023-02-17T18:18:15.477Z,3.33
2023-02-17T18:20:42.041Z,2.30
2023-02-17T18:23:08.560Z,3.85
2023-02-17T18:25:35.132Z,2.15
2023-02-17T18:28:01.548Z,2.95
2023-02-17T18:30:28.157Z,1.70
2023-02-17T18:32:54.763Z,3.10
2023-02-17T18:35:21.352Z,2.85
2023-02-17T18:37:48.291Z,3.42
2023-02-17T18:40:17.601Z,2.83
2023-02-17T18:42:48.193Z,2.63
2023-02-17T18:45:16.622Z,4.38
2023-02-17T18:47:43.891Z,2.45
2023-02-17T18:50:11.225Z,2.92
2023-02-17T18:52:38.614Z,3.08
2023-02-17T18:55:05.748Z,4.13
2023-02-17T18:57:33.477Z,3.97
2023-02-17T19:00:00.192Z,2.95
2023-02-17T19:02:26.654Z,4.97
2023-02-17T19:04:53.667Z,3.45
2023-02-17T19:07:21.197Z,3.20
2023-02-17T19:09:51.410Z,2.70
2023-02-17T19:12:18.420Z,2.78
2023-02-17T19:14:44.945Z,2.35
2023-02-17T19:17:12.609Z,2.70
2023-02-17T19:19:40.441Z,3.40
2023-02-17T19:22:08.787Z,3.15
2023-02-17T19:24:37.529Z,2.55
2023-02-17T19:27:04.547Z,2.40
2023-02-17T19:29:31.275Z,2.85
2023-02-17T19:31:58.840Z,3.78
2023-02-17T19:34:25.805Z,2.10
2023-02-17T19:36:52.347Z,3.60
2023-02-17T19:39:18.889Z,4.55
2023-02-17T19:41:45.333Z,2.20
2023-02-17T19:44:11.888Z,3.70
2023-02-17T19:46:38.839Z,2.25
2023-02-17T19:49:06.165Z,3.42
2023-02-17T19:51:33.630Z,3.58
2023-02-17T19:54:01.380Z,3.47
2023-02-17T19:56:31.340Z,5.78
2023-02-17T19:58:58.526Z,3.20
2023-02-17T20:01:28.154Z,2.50
2023-02-17T20:03:55.577Z,4.97
2023-02-17T20:06:31.087Z,2.45
2023-02-17T20:08:59.847Z,3.83
2023-02-17T20:11:26.688Z,3.65
2023-02-17T20:13:53.940Z,2.67
2023-02-17T20:16:20.835Z,2.75
2023-02-17T20:18:49.466Z,3.22
2023-02-17T20:21:21.532Z,3.28
2023-02-17T20:23:48.601Z,4.30
2023-02-17T20:26:18.122Z,4.10
2023-02-17T20:28:44.676Z,2.90
2023-02-17T20:31:11.760Z,2.65
2023-02-17T20:33:39.472Z,3.17
2023-02-17T20:36:07.860Z,4.85
2023-02-17T20:38:35.081Z,3.10
2023-02-17T20:41:01.695Z,5.05
2023-02-17T20:43:28.277Z,4.32
2023-02-17T20:45:55.163Z,5.75
2023-02-17T20:48:27.249Z,3.78
2023-02-17T20:50:58.636Z,5.03
2023-02-17T20:53:26.359Z,3.70
2023-02-17T20:55:53.205Z,4.32
2023-02-17T20:58:19.747Z,3.72
2023-02-17T21:00:46.416Z,4.03
2023-02-17T21:03:12.996Z,3.95
2023-02-17T21:05:39.670Z,4.72
2023-02-17T21:08:06.070Z,5.38
2023-02-17T21:10:33.735Z,4.38
2023-02-17T21:13:00.149Z,6.10
2023-02-17T21:15:27.265Z,4.00
2023-02-17T21:17:53.894Z,6.35
2023-02-17T21:20:21.194Z,4.68
2023-02-17T21:22:48.508Z,5.43
2023-02-17T21:25:15.007Z,4.63
2023-02-17T21:27:41.484Z,5.07
2023-02-17T21:30:11.040Z,5.60
2023-02-17T21:32:37.847Z,5.93
2023-02-17T21:35:04.349Z,5.65
2023-02-17T21:37:31.093Z,4.78
2023-02-17T21:39:57.619Z,4.88
2023-02-17T21:42:45.479Z,5.55
2023-02-17T21:45:12.228Z,5.95
2023-02-17T21:47:38.629Z,6.95
2023-02-17T21:50:05.713Z,6.18
2023-02-17T21:52:32.234Z,8.10
2023-02-17T21:55:00.815Z,7.82
2023-02-17T21:57:27.221Z,6.95
2023-02-17T21:59:53.606Z,8.45
2023-02-17T22:02:20.024Z,6.68
2023-02-17T22:04:46.457Z,6.85
2023-02-17T22:07:12.911Z,7.80
2023-02-17T22:09:39.350Z,8.65
2023-02-17T22:12:06.117Z,7.80
2023-02-17T22:14:32.488Z,8.20
2023-02-17T22:16:58.859Z,7.80
2023-02-17T22:19:25.618Z,9.63
2023-02-17T22:21:52.887Z,8.32
2023-02-17T22:24:26.792Z,8.25
2023-02-17T22:26:53.708Z,10.82
2023-02-17T22:29:20.144Z,8.73
2023-02-17T22:31:46.979Z,8.70
2023-02-17T22:34:14.511Z,8.00
2023-02-17T22:36:41.429Z,8.40
2023-02-17T22:39:08.718Z,8.43
2023-02-17T22:41:35.799Z,7.55
2023-02-17T22:44:03.443Z,10.52
2023-02-17T22:46:29.984Z,9.05
2023-02-17T22:48:57.493Z,8.30
2023-02-17T22:51:27.028Z,9.02
2023-02-17T22:53:53.928Z,7.78
2023-02-17T22:56:20.901Z,7.60
2023-02-17T22:58:47.643Z,8.98
2023-02-17T23:01:20.692Z,8.10
2023-02-17T23:03:53.937Z,9.70
2023-02-17T23:06:22.298Z,9.48
2023-02-17T23:08:49.782Z,8.25
2023-02-17T23:11:39.773Z,10.30
2023-02-17T23:16:33.040Z,8.15
2023-02-17T23:19:00.219Z,8.65
2023-02-17T23:21:26.707Z,9.50
2023-02-17T23:23:53.099Z,8.75
2023-02-17T23:26:19.523Z,9.48
2023-02-17T23:28:45.923Z,8.18
2023-02-17T23:31:12.576Z,9.30
2023-02-17T23:33:39.063Z,8.40
2023-02-17T23:36:06.944Z,9.70
2023-02-17T23:38:33.862Z,7.93
2023-02-17T23:41:01.247Z,8.10
2023-02-17T23:43:28.494Z,9.50
2023-02-17T23:45:59.692Z,9.35
2023-02-17T23:48:26.202Z,10.02
2023-02-17T23:51:04.075Z,10.02
2023-02-17T23:53:30.943Z,10.10
2023-02-17T23:56:20.333Z,8.77
2023-02-17T23:58:46.834Z,12.38
